Registration

All data are given in time UTC except for the places where it is expressly stated to the contrary, The data provided on this website are informative!!!


Actual Weather
 
General weather forecast

Fog is forecasted with visibility limits from 800 m down to 400 m.
podlpodklubelmalswiFOG (st.1)Restriction in air transport.
Weather - Poland
4°C Szczecin 2°C Suwałki 1°C Warszawa 3°C Poznan
3°C Opole 4°C Kraków 0°C Rzeszów
More cities in Poland

Weather - Europe
5°C Berlin 4°C Paryz -0°C Oslo 3°C Praga
2°C Zagrzeb
More cities in Europe

METAR EPBC 191800Z 27001KT 4000 BR NSC 00/M01 Q1035=
METAR EPCE 191930Z 27007KT 9999 OVC014 03/01 Q1036 RMK 034 085 8/8=
METAR EPDA 191930Z 26006KT 220V310 9999 OVC016 05/01 Q1037 RMK 049 078 8/8=
METAR EPDE 191930Z 30002KT 3000 BR SCT033 BKN200 M00/M01 Q1036 RMK M004 097 6/4=
METAR EPKS 191930Z VRB01KT 9999 OVC022 03/03 Q1038 RMK 025 100 8/8=
METAR EPLK 191930Z 29001KT 2000 BR OVC030 01/01 Q1037 RMK 005 100 8/8=
METAR EPLY 191900Z 31004KT 7000 FEW007 BKN028 03/02 Q1036 RMK 031 092 7/2=
METAR EPMB 191900Z 30006KT 9999 OVC027 04/02 Q1036 RMK 043 084 8/8=
METAR EPMI 191800Z 27005KT 9999 OVC017 03/01 Q1037 RMK 029 086 8/8=
METAR EPMM 191930Z 35002KT 4000 BR NSC M03/M04 Q1036 RMK M029 093 0/0=
METAR EPOK 191930Z 27006KT 9999 SCT016 03/01 Q1036 RMK 033 083 4/4=
METAR EPPR 191900Z 29004KT 9999 OVC023 04/01 Q1037 RMK 042 078 8/8=
METAR EPPW 191930Z 29004KT 9999 BKN020 02/01 Q1038 RMK 016 098 7/7=
METAR EPSN 191930Z 26006KT 9999 OVC017 03/02 Q1038 RMK 033 092 8/8=
METAR EPTM 191930Z AUTO 34002KT M00/M01 Q1036 RMK M004 094 ///=


 

Copyright©2007 HS-PAF All rights reserved.